sensor_id;sensor_type;location;lat;lon;timestamp;P1;durP1;ratioP1;P2;durP2;ratioP2
52686;SDS011;38584;49.426;8.396;2024-03-17T00:02:18;15.88;;;7.53;;
52686;SDS011;38584;49.426;8.396;2024-03-17T00:04:46;16.55;;;7.65;;
52686;SDS011;38584;49.426;8.396;2024-03-17T00:07:12;19.27;;;7.72;;
52686;SDS011;38584;49.426;8.396;2024-03-17T00:09:38;16.90;;;7.63;;
52686;SDS011;38584;49.426;8.396;2024-03-17T00:12:03;13.95;;;7.65;;
52686;SDS011;38584;49.426;8.396;2024-03-17T00:14:29;13.18;;;7.25;;
52686;SDS011;38584;49.426;8.396;2024-03-17T00:16:54;15.52;;;7.80;;
52686;SDS011;38584;49.426;8.396;2024-03-17T00:19:20;16.70;;;8.40;;
52686;SDS011;38584;49.426;8.396;2024-03-17T00:21:47;15.32;;;8.52;;
52686;SDS011;38584;49.426;8.396;2024-03-17T00:24:13;17.58;;;9.55;;
52686;SDS011;38584;49.426;8.396;2024-03-17T00:26:38;17.88;;;8.98;;
52686;SDS011;38584;49.426;8.396;2024-03-17T00:29:04;18.17;;;8.98;;
52686;SDS011;38584;49.426;8.396;2024-03-17T00:31:30;18.60;;;9.18;;
52686;SDS011;38584;49.426;8.396;2024-03-17T00:33:56;15.25;;;8.18;;
52686;SDS011;38584;49.426;8.396;2024-03-17T00:36:22;17.58;;;8.80;;
52686;SDS011;38584;49.426;8.396;2024-03-17T00:38:48;16.45;;;8.20;;
52686;SDS011;38584;49.426;8.396;2024-03-17T00:41:13;14.35;;;7.45;;
52686;SDS011;38584;49.426;8.396;2024-03-17T00:43:39;18.52;;;8.18;;
52686;SDS011;38584;49.426;8.396;2024-03-17T00:46:04;18.27;;;8.55;;
52686;SDS011;38584;49.426;8.396;2024-03-17T00:48:33;16.02;;;8.25;;
52686;SDS011;38584;49.426;8.396;2024-03-17T00:50:58;17.05;;;7.97;;
52686;SDS011;38584;49.426;8.396;2024-03-17T00:53:24;18.65;;;9.18;;
52686;SDS011;38584;49.426;8.396;2024-03-17T00:55:53;23.80;;;9.10;;
52686;SDS011;38584;49.426;8.396;2024-03-17T00:58:28;18.38;;;8.98;;
52686;SDS011;38584;49.426;8.396;2024-03-17T01:00:53;16.05;;;8.70;;
52686;SDS011;38584;49.426;8.396;2024-03-17T01:03:19;17.10;;;9.02;;
52686;SDS011;38584;49.426;8.396;2024-03-17T01:05:50;16.42;;;8.68;;
52686;SDS011;38584;49.426;8.396;2024-03-17T01:08:17;20.65;;;8.57;;
52686;SDS011;38584;49.426;8.396;2024-03-17T01:10:43;16.38;;;8.80;;
52686;SDS011;38584;49.426;8.396;2024-03-17T01:13:09;15.68;;;7.95;;
52686;SDS011;38584;49.426;8.396;2024-03-17T01:15:35;17.02;;;8.32;;
52686;SDS011;38584;49.426;8.396;2024-03-17T01:18:04;18.10;;;8.13;;
52686;SDS011;38584;49.426;8.396;2024-03-17T01:20:31;17.02;;;8.40;;
52686;SDS011;38584;49.426;8.396;2024-03-17T01:22:57;17.90;;;8.00;;
52686;SDS011;38584;49.426;8.396;2024-03-17T01:25:22;16.30;;;7.78;;
52686;SDS011;38584;49.426;8.396;2024-03-17T01:27:53;15.48;;;8.18;;
52686;SDS011;38584;49.426;8.396;2024-03-17T01:30:22;14.48;;;7.97;;
52686;SDS011;38584;49.426;8.396;2024-03-17T01:32:51;15.52;;;8.10;;
52686;SDS011;38584;49.426;8.396;2024-03-17T01:35:16;16.33;;;8.40;;
52686;SDS011;38584;49.426;8.396;2024-03-17T01:37:42;15.00;;;7.57;;
52686;SDS011;38584;49.426;8.396;2024-03-17T01:40:07;16.05;;;8.48;;
52686;SDS011;38584;49.426;8.396;2024-03-17T01:42:46;16.23;;;7.93;;
52686;SDS011;38584;49.426;8.396;2024-03-17T01:47:58;14.73;;;7.72;;
52686;SDS011;38584;49.426;8.396;2024-03-17T01:50:26;14.60;;;7.93;;
52686;SDS011;38584;49.426;8.396;2024-03-17T01:53:00;15.90;;;8.70;;
52686;SDS011;38584;49.426;8.396;2024-03-17T01:55:29;19.80;;;8.30;;
52686;SDS011;38584;49.426;8.396;2024-03-17T01:57:54;17.17;;;8.85;;
52686;SDS011;38584;49.426;8.396;2024-03-17T02:00:23;15.75;;;8.23;;
52686;SDS011;38584;49.426;8.396;2024-03-17T02:02:48;15.93;;;7.72;;
52686;SDS011;38584;49.426;8.396;2024-03-17T02:05:14;14.63;;;7.70;;
52686;SDS011;38584;49.426;8.396;2024-03-17T02:07:42;17.52;;;8.05;;
52686;SDS011;38584;49.426;8.396;2024-03-17T02:10:10;15.00;;;7.80;;
52686;SDS011;38584;49.426;8.396;2024-03-17T02:12:39;16.02;;;9.13;;
52686;SDS011;38584;49.426;8.396;2024-03-17T02:15:06;16.00;;;7.88;;
52686;SDS011;38584;49.426;8.396;2024-03-17T02:17:35;17.08;;;7.85;;
52686;SDS011;38584;49.426;8.396;2024-03-17T02:20:06;16.27;;;8.20;;
52686;SDS011;38584;49.426;8.396;2024-03-17T02:22:33;18.95;;;7.75;;
52686;SDS011;38584;49.426;8.396;2024-03-17T02:25:01;15.60;;;7.97;;
52686;SDS011;38584;49.426;8.396;2024-03-17T02:27:27;16.63;;;8.35;;
52686;SDS011;38584;49.426;8.396;2024-03-17T02:29:55;18.30;;;9.45;;
52686;SDS011;38584;49.426;8.396;2024-03-17T02:32:21;18.10;;;8.68;;
52686;SDS011;38584;49.426;8.396;2024-03-17T02:34:53;14.63;;;7.50;;
52686;SDS011;38584;49.426;8.396;2024-03-17T02:37:18;14.65;;;7.72;;
52686;SDS011;38584;49.426;8.396;2024-03-17T02:39:50;15.73;;;8.48;;
52686;SDS011;38584;49.426;8.396;2024-03-17T02:42:15;16.38;;;8.88;;
52686;SDS011;38584;49.426;8.396;2024-03-17T02:44:43;16.70;;;8.98;;
52686;SDS011;38584;49.426;8.396;2024-03-17T02:47:09;16.30;;;8.55;;
52686;SDS011;38584;49.426;8.396;2024-03-17T02:49:34;15.65;;;8.43;;
52686;SDS011;38584;49.426;8.396;2024-03-17T02:52:04;18.23;;;7.65;;
52686;SDS011;38584;49.426;8.396;2024-03-17T02:54:34;16.20;;;8.70;;
52686;SDS011;38584;49.426;8.396;2024-03-17T02:57:00;15.48;;;7.55;;
52686;SDS011;38584;49.426;8.396;2024-03-17T02:59:25;16.30;;;7.57;;
52686;SDS011;38584;49.426;8.396;2024-03-17T03:01:51;15.25;;;8.10;;
52686;SDS011;38584;49.426;8.396;2024-03-17T03:04:17;14.43;;;7.68;;
52686;SDS011;38584;49.426;8.396;2024-03-17T03:06:42;17.23;;;8.35;;
52686;SDS011;38584;49.426;8.396;2024-03-17T03:09:08;14.32;;;7.68;;
52686;SDS011;38584;49.426;8.396;2024-03-17T03:11:38;18.10;;;7.65;;
52686;SDS011;38584;49.426;8.396;2024-03-17T03:14:05;17.85;;;8.50;;
52686;SDS011;38584;49.426;8.396;2024-03-17T03:16:30;15.77;;;8.05;;
52686;SDS011;38584;49.426;8.396;2024-03-17T03:18:55;16.38;;;8.60;;
52686;SDS011;38584;49.426;8.396;2024-03-17T03:21:20;15.15;;;8.23;;
52686;SDS011;38584;49.426;8.396;2024-03-17T03:23:46;15.05;;;8.30;;
52686;SDS011;38584;49.426;8.396;2024-03-17T03:26:12;16.13;;;8.20;;
52686;SDS011;38584;49.426;8.396;2024-03-17T03:28:37;17.17;;;8.82;;
52686;SDS011;38584;49.426;8.396;2024-03-17T03:31:03;16.05;;;8.95;;
52686;SDS011;38584;49.426;8.396;2024-03-17T03:33:29;19.98;;;9.30;;
52686;SDS011;38584;49.426;8.396;2024-03-17T03:35:54;19.58;;;10.10;;
52686;SDS011;38584;49.426;8.396;2024-03-17T03:38:23;18.00;;;9.65;;
52686;SDS011;38584;49.426;8.396;2024-03-17T03:40:48;20.40;;;9.23;;
52686;SDS011;38584;49.426;8.396;2024-03-17T03:43:14;17.50;;;9.45;;
52686;SDS011;38584;49.426;8.396;2024-03-17T03:45:40;17.20;;;8.93;;
52686;SDS011;38584;49.426;8.396;2024-03-17T03:48:06;15.85;;;8.93;;
52686;SDS011;38584;49.426;8.396;2024-03-17T03:50:33;16.35;;;8.60;;
52686;SDS011;38584;49.426;8.396;2024-03-17T03:52:59;19.70;;;10.77;;
52686;SDS011;38584;49.426;8.396;2024-03-17T03:55:24;17.70;;;9.80;;
52686;SDS011;38584;49.426;8.396;2024-03-17T03:57:50;16.30;;;8.55;;
52686;SDS011;38584;49.426;8.396;2024-03-17T04:00:20;15.80;;;8.82;;
52686;SDS011;38584;49.426;8.396;2024-03-17T04:02:46;17.45;;;8.93;;
52686;SDS011;38584;49.426;8.396;2024-03-17T04:05:16;16.75;;;9.32;;
52686;SDS011;38584;49.426;8.396;2024-03-17T04:07:42;16.80;;;9.38;;
52686;SDS011;38584;49.426;8.396;2024-03-17T04:10:10;17.58;;;9.20;;
52686;SDS011;38584;49.426;8.396;2024-03-17T04:12:36;16.17;;;9.18;;
52686;SDS011;38584;49.426;8.396;2024-03-17T04:15:01;18.85;;;9.25;;
52686;SDS011;38584;49.426;8.396;2024-03-17T04:17:26;18.33;;;9.27;;
52686;SDS011;38584;49.426;8.396;2024-03-17T04:19:52;17.98;;;9.25;;
52686;SDS011;38584;49.426;8.396;2024-03-17T04:22:18;17.30;;;9.15;;
52686;SDS011;38584;49.426;8.396;2024-03-17T04:24:47;20.70;;;8.98;;
52686;SDS011;38584;49.426;8.396;2024-03-17T04:27:18;21.88;;;10.35;;
52686;SDS011;38584;49.426;8.396;2024-03-17T04:29:45;18.05;;;9.30;;
52686;SDS011;38584;49.426;8.396;2024-03-17T04:32:12;23.08;;;11.05;;
52686;SDS011;38584;49.426;8.396;2024-03-17T04:34:40;16.90;;;9.98;;
52686;SDS011;38584;49.426;8.396;2024-03-17T04:37:08;21.88;;;8.93;;
52686;SDS011;38584;49.426;8.396;2024-03-17T04:39:33;19.38;;;9.25;;
52686;SDS011;38584;49.426;8.396;2024-03-17T04:42:08;17.30;;;8.70;;
52686;SDS011;38584;49.426;8.396;2024-03-17T04:44:37;16.23;;;9.07;;
52686;SDS011;38584;49.426;8.396;2024-03-17T04:47:03;18.08;;;9.50;;
52686;SDS011;38584;49.426;8.396;2024-03-17T04:49:32;19.05;;;9.20;;
52686;SDS011;38584;49.426;8.396;2024-03-17T04:52:11;16.23;;;8.60;;
52686;SDS011;38584;49.426;8.396;2024-03-17T04:54:36;16.48;;;8.90;;
52686;SDS011;38584;49.426;8.396;2024-03-17T04:57:02;18.77;;;9.32;;
52686;SDS011;38584;49.426;8.396;2024-03-17T04:59:37;19.77;;;9.70;;
52686;SDS011;38584;49.426;8.396;2024-03-17T05:02:06;17.77;;;8.82;;
52686;SDS011;38584;49.426;8.396;2024-03-17T05:04:32;18.63;;;9.63;;
52686;SDS011;38584;49.426;8.396;2024-03-17T05:06:57;16.58;;;8.77;;
52686;SDS011;38584;49.426;8.396;2024-03-17T05:09:26;17.48;;;8.43;;
52686;SDS011;38584;49.426;8.396;2024-03-17T05:11:51;21.40;;;9.38;;
52686;SDS011;38584;49.426;8.396;2024-03-17T05:14:20;17.63;;;8.88;;
52686;SDS011;38584;49.426;8.396;2024-03-17T05:16:47;18.10;;;9.35;;
52686;SDS011;38584;49.426;8.396;2024-03-17T05:19:14;20.05;;;10.52;;
52686;SDS011;38584;49.426;8.396;2024-03-17T05:21:45;16.90;;;9.88;;
52686;SDS011;38584;49.426;8.396;2024-03-17T05:24:11;22.42;;;10.40;;
52686;SDS011;38584;49.426;8.396;2024-03-17T05:26:37;15.10;;;8.13;;
52686;SDS011;38584;49.426;8.396;2024-03-17T05:29:03;16.48;;;9.63;;
52686;SDS011;38584;49.426;8.396;2024-03-17T05:31:28;17.67;;;9.73;;
52686;SDS011;38584;49.426;8.396;2024-03-17T05:33:54;16.98;;;8.95;;
52686;SDS011;38584;49.426;8.396;2024-03-17T05:36:20;17.10;;;9.10;;
52686;SDS011;38584;49.426;8.396;2024-03-17T05:38:46;20.48;;;9.48;;
52686;SDS011;38584;49.426;8.396;2024-03-17T05:41:12;20.80;;;9.45;;
52686;SDS011;38584;49.426;8.396;2024-03-17T05:43:38;20.50;;;9.52;;
52686;SDS011;38584;49.426;8.396;2024-03-17T05:46:04;17.00;;;9.18;;
52686;SDS011;38584;49.426;8.396;2024-03-17T05:48:31;18.92;;;8.90;;
52686;SDS011;38584;49.426;8.396;2024-03-17T05:50:57;16.48;;;8.88;;
52686;SDS011;38584;49.426;8.396;2024-03-17T05:53:28;18.85;;;9.68;;
52686;SDS011;38584;49.426;8.396;2024-03-17T05:55:54;18.58;;;9.60;;
52686;SDS011;38584;49.426;8.396;2024-03-17T05:58:20;17.92;;;8.27;;
52686;SDS011;38584;49.426;8.396;2024-03-17T06:00:45;16.70;;;9.15;;
52686;SDS011;38584;49.426;8.396;2024-03-17T06:03:11;15.43;;;8.35;;
52686;SDS011;38584;49.426;8.396;2024-03-17T06:05:37;17.40;;;9.18;;
52686;SDS011;38584;49.426;8.396;2024-03-17T06:08:06;19.42;;;9.00;;
52686;SDS011;38584;49.426;8.396;2024-03-17T06:10:33;19.23;;;9.75;;
52686;SDS011;38584;49.426;8.396;2024-03-17T06:12:59;19.05;;;9.98;;
52686;SDS011;38584;49.426;8.396;2024-03-17T06:15:25;21.75;;;11.70;;
52686;SDS011;38584;49.426;8.396;2024-03-17T06:17:54;22.42;;;12.15;;
52686;SDS011;38584;49.426;8.396;2024-03-17T06:20:20;23.90;;;11.80;;
52686;SDS011;38584;49.426;8.396;2024-03-17T06:22:46;17.13;;;9.13;;
52686;SDS011;38584;49.426;8.396;2024-03-17T06:25:12;18.42;;;10.57;;
52686;SDS011;38584;49.426;8.396;2024-03-17T06:27:38;19.33;;;11.55;;
52686;SDS011;38584;49.426;8.396;2024-03-17T06:30:03;24.17;;;12.95;;
52686;SDS011;38584;49.426;8.396;2024-03-17T06:32:29;28.85;;;17.13;;
52686;SDS011;38584;49.426;8.396;2024-03-17T06:34:56;26.08;;;15.23;;
52686;SDS011;38584;49.426;8.396;2024-03-17T06:37:22;25.27;;;14.98;;
52686;SDS011;38584;49.426;8.396;2024-03-17T06:39:48;31.45;;;19.25;;
52686;SDS011;38584;49.426;8.396;2024-03-17T06:42:13;32.03;;;18.92;;
52686;SDS011;38584;49.426;8.396;2024-03-17T06:44:39;25.00;;;14.90;;
52686;SDS011;38584;49.426;8.396;2024-03-17T06:47:04;25.17;;;14.70;;
52686;SDS011;38584;49.426;8.396;2024-03-17T06:49:33;26.88;;;14.75;;
52686;SDS011;38584;49.426;8.396;2024-03-17T06:51:58;27.13;;;14.65;;
52686;SDS011;38584;49.426;8.396;2024-03-17T06:54:24;24.08;;;14.25;;
52686;SDS011;38584;49.426;8.396;2024-03-17T06:56:49;24.48;;;14.18;;
52686;SDS011;38584;49.426;8.396;2024-03-17T06:59:15;24.75;;;13.85;;
52686;SDS011;38584;49.426;8.396;2024-03-17T07:01:53;22.65;;;13.85;;
52686;SDS011;38584;49.426;8.396;2024-03-17T07:04:18;22.50;;;12.32;;
52686;SDS011;38584;49.426;8.396;2024-03-17T07:06:46;25.17;;;15.13;;
52686;SDS011;38584;49.426;8.396;2024-03-17T07:09:11;27.08;;;16.52;;
52686;SDS011;38584;49.426;8.396;2024-03-17T07:11:36;21.85;;;12.50;;
52686;SDS011;38584;49.426;8.396;2024-03-17T07:14:05;20.55;;;12.20;;
52686;SDS011;38584;49.426;8.396;2024-03-17T07:16:30;22.25;;;12.40;;
52686;SDS011;38584;49.426;8.396;2024-03-17T07:18:57;19.35;;;11.23;;
52686;SDS011;38584;49.426;8.396;2024-03-17T07:21:25;18.88;;;10.38;;
52686;SDS011;38584;49.426;8.396;2024-03-17T07:23:51;18.67;;;10.18;;
52686;SDS011;38584;49.426;8.396;2024-03-17T07:26:28;16.83;;;9.63;;
52686;SDS011;38584;49.426;8.396;2024-03-17T07:28:54;18.77;;;10.07;;
52686;SDS011;38584;49.426;8.396;2024-03-17T07:31:20;18.13;;;10.00;;
52686;SDS011;38584;49.426;8.396;2024-03-17T07:33:45;18.85;;;9.57;;
52686;SDS011;38584;49.426;8.396;2024-03-17T07:36:10;16.65;;;8.55;;
52686;SDS011;38584;49.426;8.396;2024-03-17T07:38:39;17.38;;;8.52;;
52686;SDS011;38584;49.426;8.396;2024-03-17T07:41:05;16.45;;;8.15;;
52686;SDS011;38584;49.426;8.396;2024-03-17T07:43:32;17.23;;;8.10;;
52686;SDS011;38584;49.426;8.396;2024-03-17T07:46:06;15.20;;;7.72;;
52686;SDS011;38584;49.426;8.396;2024-03-17T07:48:35;14.73;;;7.45;;
52686;SDS011;38584;49.426;8.396;2024-03-17T07:51:05;15.45;;;6.78;;
52686;SDS011;38584;49.426;8.396;2024-03-17T07:53:31;13.75;;;7.10;;
52686;SDS011;38584;49.426;8.396;2024-03-17T07:56:07;13.57;;;6.88;;
52686;SDS011;38584;49.426;8.396;2024-03-17T07:58:37;12.82;;;6.28;;
52686;SDS011;38584;49.426;8.396;2024-03-17T08:01:12;16.70;;;6.28;;
52686;SDS011;38584;49.426;8.396;2024-03-17T08:03:44;14.48;;;7.00;;
52686;SDS011;38584;49.426;8.396;2024-03-17T08:06:16;14.57;;;6.85;;
52686;SDS011;38584;49.426;8.396;2024-03-17T08:08:41;15.75;;;6.82;;
52686;SDS011;38584;49.426;8.396;2024-03-17T08:11:07;13.45;;;6.97;;
52686;SDS011;38584;49.426;8.396;2024-03-17T08:13:35;14.05;;;7.07;;
52686;SDS011;38584;49.426;8.396;2024-03-17T08:16:02;14.70;;;6.55;;
52686;SDS011;38584;49.426;8.396;2024-03-17T08:18:30;14.68;;;7.10;;
52686;SDS011;38584;49.426;8.396;2024-03-17T08:20:56;14.27;;;6.88;;
52686;SDS011;38584;49.426;8.396;2024-03-17T08:23:22;14.32;;;6.65;;
52686;SDS011;38584;49.426;8.396;2024-03-17T08:25:54;14.57;;;6.90;;
52686;SDS011;38584;49.426;8.396;2024-03-17T08:28:24;13.80;;;6.40;;
52686;SDS011;38584;49.426;8.396;2024-03-17T08:30:50;15.32;;;6.40;;
52686;SDS011;38584;49.426;8.396;2024-03-17T08:33:20;14.13;;;6.55;;
52686;SDS011;38584;49.426;8.396;2024-03-17T08:36:04;15.13;;;6.75;;
52686;SDS011;38584;49.426;8.396;2024-03-17T08:38:34;15.60;;;6.70;;
52686;SDS011;38584;49.426;8.396;2024-03-17T08:41:06;13.00;;;6.45;;
52686;SDS011;38584;49.426;8.396;2024-03-17T08:43:33;15.03;;;6.67;;
52686;SDS011;38584;49.426;8.396;2024-03-17T08:46:00;16.77;;;8.00;;
52686;SDS011;38584;49.426;8.396;2024-03-17T08:48:28;15.20;;;7.15;;
52686;SDS011;38584;49.426;8.396;2024-03-17T08:50:55;17.10;;;6.80;;
52686;SDS011;38584;49.426;8.396;2024-03-17T08:53:21;13.70;;;7.05;;
52686;SDS011;38584;49.426;8.396;2024-03-17T08:55:46;13.20;;;6.28;;
52686;SDS011;38584;49.426;8.396;2024-03-17T08:58:12;14.15;;;6.78;;
52686;SDS011;38584;49.426;8.396;2024-03-17T09:00:37;13.57;;;6.18;;
52686;SDS011;38584;49.426;8.396;2024-03-17T09:03:03;13.15;;;6.22;;
52686;SDS011;38584;49.426;8.396;2024-03-17T09:05:29;16.67;;;6.72;;
52686;SDS011;38584;49.426;8.396;2024-03-17T09:07:54;13.93;;;6.82;;
52686;SDS011;38584;49.426;8.396;2024-03-17T09:10:20;13.98;;;6.63;;
52686;SDS011;38584;49.426;8.396;2024-03-17T09:12:45;17.10;;;6.95;;
52686;SDS011;38584;49.426;8.396;2024-03-17T09:15:12;15.35;;;7.80;;
52686;SDS011;38584;49.426;8.396;2024-03-17T09:17:38;15.48;;;7.40;;
52686;SDS011;38584;49.426;8.396;2024-03-17T09:20:04;15.35;;;7.93;;
52686;SDS011;38584;49.426;8.396;2024-03-17T09:22:30;15.40;;;7.28;;
52686;SDS011;38584;49.426;8.396;2024-03-17T09:24:55;16.58;;;7.40;;
52686;SDS011;38584;49.426;8.396;2024-03-17T09:27:24;15.32;;;6.78;;
52686;SDS011;38584;49.426;8.396;2024-03-17T09:29:53;15.38;;;6.95;;
52686;SDS011;38584;49.426;8.396;2024-03-17T09:32:18;15.18;;;7.10;;
52686;SDS011;38584;49.426;8.396;2024-03-17T09:34:47;14.52;;;7.05;;
52686;SDS011;38584;49.426;8.396;2024-03-17T09:37:18;15.60;;;7.10;;
52686;SDS011;38584;49.426;8.396;2024-03-17T09:39:46;16.50;;;7.70;;
52686;SDS011;38584;49.426;8.396;2024-03-17T09:42:17;18.15;;;7.50;;
52686;SDS011;38584;49.426;8.396;2024-03-17T09:44:52;13.10;;;7.07;;
52686;SDS011;38584;49.426;8.396;2024-03-17T09:47:20;14.57;;;7.43;;
52686;SDS011;38584;49.426;8.396;2024-03-17T09:49:49;16.13;;;7.45;;
52686;SDS011;38584;49.426;8.396;2024-03-17T09:52:19;14.90;;;7.38;;
52686;SDS011;38584;49.426;8.396;2024-03-17T09:54:46;13.57;;;7.15;;
52686;SDS011;38584;49.426;8.396;2024-03-17T09:57:16;15.45;;;7.45;;
52686;SDS011;38584;49.426;8.396;2024-03-17T09:59:42;15.65;;;7.15;;
52686;SDS011;38584;49.426;8.396;2024-03-17T10:02:16;16.15;;;7.28;;
52686;SDS011;38584;49.426;8.396;2024-03-17T10:04:43;14.48;;;7.10;;
52686;SDS011;38584;49.426;8.396;2024-03-17T10:07:09;14.73;;;7.35;;
52686;SDS011;38584;49.426;8.396;2024-03-17T10:09:37;14.70;;;6.78;;
52686;SDS011;38584;49.426;8.396;2024-03-17T10:14:58;13.50;;;6.82;;
52686;SDS011;38584;49.426;8.396;2024-03-17T10:17:33;18.08;;;7.22;;
52686;SDS011;38584;49.426;8.396;2024-03-17T10:20:16;13.55;;;7.00;;
52686;SDS011;38584;49.426;8.396;2024-03-17T10:22:58;14.73;;;6.68;;
52686;SDS011;38584;49.426;8.396;2024-03-17T10:25:27;14.68;;;6.93;;
52686;SDS011;38584;49.426;8.396;2024-03-17T10:27:53;13.50;;;6.68;;
52686;SDS011;38584;49.426;8.396;2024-03-17T10:30:22;16.92;;;6.25;;
52686;SDS011;38584;49.426;8.396;2024-03-17T10:32:57;14.13;;;6.65;;
52686;SDS011;38584;49.426;8.396;2024-03-17T10:35:34;14.45;;;7.13;;
52686;SDS011;38584;49.426;8.396;2024-03-17T10:38:02;16.92;;;6.88;;
52686;SDS011;38584;49.426;8.396;2024-03-17T10:40:32;13.35;;;6.72;;
52686;SDS011;38584;49.426;8.396;2024-03-17T10:43:01;12.93;;;6.57;;
52686;SDS011;38584;49.426;8.396;2024-03-17T10:45:27;16.05;;;7.13;;
52686;SDS011;38584;49.426;8.396;2024-03-17T10:48:00;15.52;;;6.70;;
52686;SDS011;38584;49.426;8.396;2024-03-17T10:50:28;14.70;;;6.75;;
52686;SDS011;38584;49.426;8.396;2024-03-17T10:52:55;18.50;;;6.72;;
52686;SDS011;38584;49.426;8.396;2024-03-17T10:55:27;16.05;;;6.97;;
52686;SDS011;38584;49.426;8.396;2024-03-17T10:57:54;13.23;;;6.72;;
52686;SDS011;38584;49.426;8.396;2024-03-17T11:00:23;13.68;;;5.93;;
52686;SDS011;38584;49.426;8.396;2024-03-17T11:02:51;13.52;;;5.95;;
52686;SDS011;38584;49.426;8.396;2024-03-17T11:05:27;12.95;;;5.90;;
52686;SDS011;38584;49.426;8.396;2024-03-17T11:07:59;13.38;;;5.90;;
52686;SDS011;38584;49.426;8.396;2024-03-17T11:10:32;14.70;;;6.28;;
52686;SDS011;38584;49.426;8.396;2024-03-17T11:13:00;13.27;;;6.30;;
52686;SDS011;38584;49.426;8.396;2024-03-17T11:20:33;14.70;;;5.85;;
52686;SDS011;38584;49.426;8.396;2024-03-17T11:22:59;12.77;;;5.38;;
52686;SDS011;38584;49.426;8.396;2024-03-17T11:28:13;13.38;;;5.15;;
52686;SDS011;38584;49.426;8.396;2024-03-17T11:31:03;12.38;;;5.28;;
52686;SDS011;38584;49.426;8.396;2024-03-17T11:38:51;13.13;;;5.30;;
52686;SDS011;38584;49.426;8.396;2024-03-17T11:49:18;13.35;;;4.80;;
52686;SDS011;38584;49.426;8.396;2024-03-17T11:51:48;13.05;;;4.30;;
52686;SDS011;38584;49.426;8.396;2024-03-17T11:54:18;13.65;;;4.13;;
52686;SDS011;38584;49.426;8.396;2024-03-17T11:56:53;12.70;;;5.35;;
52686;SDS011;38584;49.426;8.396;2024-03-17T11:59:20;10.52;;;4.85;;
52686;SDS011;38584;49.426;8.396;2024-03-17T12:01:46;10.77;;;4.45;;
52686;SDS011;38584;49.426;8.396;2024-03-17T12:04:16;13.77;;;4.88;;
52686;SDS011;38584;49.426;8.396;2024-03-17T12:06:50;12.82;;;4.80;;
52686;SDS011;38584;49.426;8.396;2024-03-17T12:09:20;13.63;;;5.63;;
52686;SDS011;38584;49.426;8.396;2024-03-17T12:11:50;13.30;;;5.40;;
52686;SDS011;38584;49.426;8.396;2024-03-17T12:14:20;12.65;;;4.72;;
52686;SDS011;38584;49.426;8.396;2024-03-17T12:16:49;13.45;;;4.60;;
52686;SDS011;38584;49.426;8.396;2024-03-17T12:19:16;16.25;;;5.13;;
52686;SDS011;38584;49.426;8.396;2024-03-17T12:21:46;13.35;;;5.05;;
52686;SDS011;38584;49.426;8.396;2024-03-17T12:24:15;11.02;;;4.88;;
52686;SDS011;38584;49.426;8.396;2024-03-17T12:26:48;15.93;;;6.53;;
52686;SDS011;38584;49.426;8.396;2024-03-17T12:31:53;18.35;;;9.68;;
52686;SDS011;38584;49.426;8.396;2024-03-17T12:34:19;40.42;;;29.40;;
52686;SDS011;38584;49.426;8.396;2024-03-17T12:36:46;24.45;;;18.42;;
52686;SDS011;38584;49.426;8.396;2024-03-17T12:42:51;17.38;;;11.82;;
52686;SDS011;38584;49.426;8.396;2024-03-17T12:44:49;15.70;;;10.90;;
52686;SDS011;38584;49.426;8.396;2024-03-17T12:47:16;12.88;;;5.10;;
52686;SDS011;38584;49.426;8.396;2024-03-17T12:49:48;12.68;;;4.75;;
52686;SDS011;38584;49.426;8.396;2024-03-17T12:52:18;12.68;;;5.10;;
52686;SDS011;38584;49.426;8.396;2024-03-17T12:57:51;16.00;;;5.03;;
52686;SDS011;38584;49.426;8.396;2024-03-17T13:00:39;11.50;;;4.70;;
52686;SDS011;38584;49.426;8.396;2024-03-17T13:03:05;11.82;;;4.60;;
52686;SDS011;38584;49.426;8.396;2024-03-17T13:05:34;13.52;;;4.97;;
52686;SDS011;38584;49.426;8.396;2024-03-17T13:08:03;11.90;;;4.93;;
52686;SDS011;38584;49.426;8.396;2024-03-17T13:10:33;12.10;;;4.90;;
52686;SDS011;38584;49.426;8.396;2024-03-17T13:13:00;12.18;;;4.82;;
52686;SDS011;38584;49.426;8.396;2024-03-17T13:15:27;11.82;;;5.10;;
52686;SDS011;38584;49.426;8.396;2024-03-17T13:17:53;13.93;;;4.97;;
52686;SDS011;38584;49.426;8.396;2024-03-17T13:20:18;11.13;;;4.38;;
52686;SDS011;38584;49.426;8.396;2024-03-17T13:22:50;12.02;;;4.63;;
52686;SDS011;38584;49.426;8.396;2024-03-17T13:25:24;11.55;;;4.80;;
52686;SDS011;38584;49.426;8.396;2024-03-17T13:27:52;12.45;;;4.97;;
52686;SDS011;38584;49.426;8.396;2024-03-17T13:30:19;12.18;;;4.68;;
52686;SDS011;38584;49.426;8.396;2024-03-17T13:32:47;11.27;;;4.93;;
52686;SDS011;38584;49.426;8.396;2024-03-17T13:35:18;13.07;;;4.72;;
52686;SDS011;38584;49.426;8.396;2024-03-17T13:37:50;13.90;;;4.88;;
52686;SDS011;38584;49.426;8.396;2024-03-17T13:40:17;11.95;;;4.88;;
52686;SDS011;38584;49.426;8.396;2024-03-17T13:42:47;15.10;;;4.75;;
52686;SDS011;38584;49.426;8.396;2024-03-17T13:45:22;12.93;;;5.05;;
52686;SDS011;38584;49.426;8.396;2024-03-17T13:47:49;12.15;;;4.80;;
52686;SDS011;38584;49.426;8.396;2024-03-17T13:50:19;11.18;;;4.65;;
52686;SDS011;38584;49.426;8.396;2024-03-17T13:52:45;11.45;;;4.55;;
52686;SDS011;38584;49.426;8.396;2024-03-17T13:57:43;12.98;;;4.85;;
52686;SDS011;38584;49.426;8.396;2024-03-17T14:00:09;14.50;;;4.80;;
52686;SDS011;38584;49.426;8.396;2024-03-17T14:02:38;12.27;;;5.10;;
52686;SDS011;38584;49.426;8.396;2024-03-17T14:05:04;11.65;;;4.78;;
52686;SDS011;38584;49.426;8.396;2024-03-17T14:07:32;11.40;;;4.90;;
52686;SDS011;38584;49.426;8.396;2024-03-17T14:09:58;11.80;;;4.10;;
52686;SDS011;38584;49.426;8.396;2024-03-17T14:12:23;11.73;;;4.10;;
52686;SDS011;38584;49.426;8.396;2024-03-17T14:14:51;12.32;;;4.85;;
52686;SDS011;38584;49.426;8.396;2024-03-17T14:17:16;12.32;;;4.93;;
52686;SDS011;38584;49.426;8.396;2024-03-17T14:19:42;11.30;;;4.68;;
52686;SDS011;38584;49.426;8.396;2024-03-17T14:22:07;12.05;;;4.32;;
52686;SDS011;38584;49.426;8.396;2024-03-17T14:24:39;10.18;;;4.43;;
52686;SDS011;38584;49.426;8.396;2024-03-17T14:27:05;11.13;;;4.70;;
52686;SDS011;38584;49.426;8.396;2024-03-17T14:29:31;9.63;;;4.10;;
52686;SDS011;38584;49.426;8.396;2024-03-17T14:31:56;10.65;;;4.40;;
52686;SDS011;38584;49.426;8.396;2024-03-17T14:34:21;11.35;;;4.72;;
52686;SDS011;38584;49.426;8.396;2024-03-17T14:36:50;11.65;;;4.78;;
52686;SDS011;38584;49.426;8.396;2024-03-17T14:39:15;11.00;;;4.07;;
52686;SDS011;38584;49.426;8.396;2024-03-17T14:41:41;12.35;;;4.68;;
52686;SDS011;38584;49.426;8.396;2024-03-17T14:44:06;10.38;;;4.00;;
52686;SDS011;38584;49.426;8.396;2024-03-17T14:46:36;9.98;;;3.95;;
52686;SDS011;38584;49.426;8.396;2024-03-17T14:49:05;11.68;;;4.28;;
52686;SDS011;38584;49.426;8.396;2024-03-17T14:51:30;10.45;;;3.95;;
52686;SDS011;38584;49.426;8.396;2024-03-17T14:53:56;10.60;;;4.00;;
52686;SDS011;38584;49.426;8.396;2024-03-17T14:56:25;9.93;;;3.72;;
52686;SDS011;38584;49.426;8.396;2024-03-17T14:58:53;11.05;;;4.28;;
52686;SDS011;38584;49.426;8.396;2024-03-17T15:01:20;9.10;;;4.05;;
52686;SDS011;38584;49.426;8.396;2024-03-17T15:03:45;12.70;;;5.10;;
52686;SDS011;38584;49.426;8.396;2024-03-17T15:06:11;10.10;;;3.88;;
52686;SDS011;38584;49.426;8.396;2024-03-17T15:08:38;10.63;;;3.90;;
52686;SDS011;38584;49.426;8.396;2024-03-17T15:11:04;9.68;;;3.70;;
52686;SDS011;38584;49.426;8.396;2024-03-17T15:13:30;8.88;;;3.38;;
52686;SDS011;38584;49.426;8.396;2024-03-17T15:15:55;10.65;;;3.60;;